sensor_id;sensor_type;location;lat;lon;timestamp;P1;durP1;ratioP1;P2;durP2;ratioP2
71622;SDS011;59473;53.214;5.728;2022-09-09T00:00:14;21.17;;;9.37;;
71622;SDS011;59473;53.214;5.728;2022-09-09T00:02:45;18.73;;;9.65;;
71622;SDS011;59473;53.214;5.728;2022-09-09T00:07:49;17.23;;;10.30;;
71622;SDS011;59473;53.214;5.728;2022-09-09T00:15:43;19.95;;;10.00;;
71622;SDS011;59473;53.214;5.728;2022-09-09T00:21:01;23.70;;;10.83;;
71622;SDS011;59473;53.214;5.728;2022-09-09T00:23:30;24.90;;;10.05;;
71622;SDS011;59473;53.214;5.728;2022-09-09T00:28:23;22.87;;;10.80;;
71622;SDS011;59473;53.214;5.728;2022-09-09T00:30:49;22.85;;;10.25;;
71622;SDS011;59473;53.214;5.728;2022-09-09T00:33:16;25.20;;;11.23;;
71622;SDS011;59473;53.214;5.728;2022-09-09T00:35:54;23.52;;;11.30;;
71622;SDS011;59473;53.214;5.728;2022-09-09T00:43:47;23.23;;;10.57;;
71622;SDS011;59473;53.214;5.728;2022-09-09T00:46:21;24.10;;;10.38;;
71622;SDS011;59473;53.214;5.728;2022-09-09T00:51:28;22.05;;;10.43;;
71622;SDS011;59473;53.214;5.728;2022-09-09T00:56:44;18.77;;;10.20;;
71622;SDS011;59473;53.214;5.728;2022-09-09T00:59:16;20.13;;;10.00;;
71622;SDS011;59473;53.214;5.728;2022-09-09T01:01:47;20.48;;;10.23;;
71622;SDS011;59473;53.214;5.728;2022-09-09T01:04:15;27.63;;;10.52;;
71622;SDS011;59473;53.214;5.728;2022-09-09T01:06:41;19.43;;;9.80;;
71622;SDS011;59473;53.214;5.728;2022-09-09T01:22:22;21.33;;;10.30;;
71622;SDS011;59473;53.214;5.728;2022-09-09T01:27:28;24.67;;;10.70;;
71622;SDS011;59473;53.214;5.728;2022-09-09T01:29:53;27.13;;;11.13;;
71622;SDS011;59473;53.214;5.728;2022-09-09T01:35:03;22.25;;;10.65;;
71622;SDS011;59473;53.214;5.728;2022-09-09T01:37:29;26.73;;;11.17;;
71622;SDS011;59473;53.214;5.728;2022-09-09T01:39:54;22.03;;;10.47;;
71622;SDS011;59473;53.214;5.728;2022-09-09T01:42:19;23.63;;;10.13;;
71622;SDS011;59473;53.214;5.728;2022-09-09T01:44:44;20.93;;;10.00;;
71622;SDS011;59473;53.214;5.728;2022-09-09T01:47:10;26.37;;;10.90;;
71622;SDS011;59473;53.214;5.728;2022-09-09T01:49:35;27.17;;;10.83;;
71622;SDS011;59473;53.214;5.728;2022-09-09T01:52:00;19.53;;;9.63;;
71622;SDS011;59473;53.214;5.728;2022-09-09T01:54:26;19.80;;;10.60;;
71622;SDS011;59473;53.214;5.728;2022-09-09T02:02:11;24.90;;;11.38;;
71622;SDS011;59473;53.214;5.728;2022-09-09T02:04:42;21.67;;;11.00;;
71622;SDS011;59473;53.214;5.728;2022-09-09T02:09:56;27.83;;;11.82;;
71622;SDS011;59473;53.214;5.728;2022-09-09T02:12:22;27.98;;;12.10;;
71622;SDS011;59473;53.214;5.728;2022-09-09T02:14:50;29.38;;;10.65;;
71622;SDS011;59473;53.214;5.728;2022-09-09T02:17:19;28.23;;;11.68;;
71622;SDS011;59473;53.214;5.728;2022-09-09T02:19:47;26.20;;;11.93;;
71622;SDS011;59473;53.214;5.728;2022-09-09T02:22:14;26.40;;;11.15;;
71622;SDS011;59473;53.214;5.728;2022-09-09T02:24:40;29.27;;;11.50;;
71622;SDS011;59473;53.214;5.728;2022-09-09T02:27:06;23.50;;;11.00;;
71622;SDS011;59473;53.214;5.728;2022-09-09T02:29:34;25.50;;;11.68;;
71622;SDS011;59473;53.214;5.728;2022-09-09T02:32:04;24.10;;;11.30;;
71622;SDS011;59473;53.214;5.728;2022-09-09T02:34:30;28.00;;;10.63;;
71622;SDS011;59473;53.214;5.728;2022-09-09T02:36:57;25.95;;;11.48;;
71622;SDS011;59473;53.214;5.728;2022-09-09T02:39:22;26.55;;;11.07;;
71622;SDS011;59473;53.214;5.728;2022-09-09T02:41:47;32.40;;;11.27;;
71622;SDS011;59473;53.214;5.728;2022-09-09T02:44:16;27.93;;;11.43;;
71622;SDS011;59473;53.214;5.728;2022-09-09T02:47:03;32.17;;;11.70;;
71622;SDS011;59473;53.214;5.728;2022-09-09T02:55:04;32.97;;;12.43;;
71622;SDS011;59473;53.214;5.728;2022-09-09T02:57:31;26.35;;;10.85;;
71622;SDS011;59473;53.214;5.728;2022-09-09T02:59:58;26.38;;;11.90;;
71622;SDS011;59473;53.214;5.728;2022-09-09T03:02:24;28.43;;;11.57;;
71622;SDS011;59473;53.214;5.728;2022-09-09T03:04:49;25.70;;;11.10;;
71622;SDS011;59473;53.214;5.728;2022-09-09T03:07:17;31.35;;;12.30;;
71622;SDS011;59473;53.214;5.728;2022-09-09T03:09:42;28.55;;;13.05;;
71622;SDS011;59473;53.214;5.728;2022-09-09T03:12:08;31.43;;;12.50;;
71622;SDS011;59473;53.214;5.728;2022-09-09T03:14:33;23.30;;;11.23;;
71622;SDS011;59473;53.214;5.728;2022-09-09T03:16:58;32.30;;;11.93;;
71622;SDS011;59473;53.214;5.728;2022-09-09T03:19:26;29.88;;;12.13;;
71622;SDS011;59473;53.214;5.728;2022-09-09T03:21:51;30.93;;;12.47;;
71622;SDS011;59473;53.214;5.728;2022-09-09T03:24:16;27.73;;;12.17;;
71622;SDS011;59473;53.214;5.728;2022-09-09T03:26:42;28.70;;;11.60;;
71622;SDS011;59473;53.214;5.728;2022-09-09T03:29:10;25.25;;;12.20;;
71622;SDS011;59473;53.214;5.728;2022-09-09T03:31:37;35.53;;;13.27;;
71622;SDS011;59473;53.214;5.728;2022-09-09T03:34:02;30.30;;;12.97;;
71622;SDS011;59473;53.214;5.728;2022-09-09T03:36:27;29.30;;;13.27;;
71622;SDS011;59473;53.214;5.728;2022-09-09T03:38:53;31.35;;;12.63;;
71622;SDS011;59473;53.214;5.728;2022-09-09T03:41:19;34.50;;;13.60;;
71622;SDS011;59473;53.214;5.728;2022-09-09T03:43:48;34.42;;;13.60;;
71622;SDS011;59473;53.214;5.728;2022-09-09T03:46:13;30.27;;;12.43;;
71622;SDS011;59473;53.214;5.728;2022-09-09T03:48:39;30.70;;;12.67;;
71622;SDS011;59473;53.214;5.728;2022-09-09T03:51:04;26.53;;;12.07;;
71622;SDS011;59473;53.214;5.728;2022-09-09T03:53:30;29.58;;;12.02;;
71622;SDS011;59473;53.214;5.728;2022-09-09T03:55:55;29.88;;;12.13;;
71622;SDS011;59473;53.214;5.728;2022-09-09T03:58:22;30.50;;;11.90;;
71622;SDS011;59473;53.214;5.728;2022-09-09T04:00:58;29.80;;;11.57;;
71622;SDS011;59473;53.214;5.728;2022-09-09T04:03:24;25.02;;;11.30;;
71622;SDS011;59473;53.214;5.728;2022-09-09T04:05:53;26.20;;;10.93;;
71622;SDS011;59473;53.214;5.728;2022-09-09T04:08:19;29.38;;;10.85;;
71622;SDS011;59473;53.214;5.728;2022-09-09T04:10:45;26.13;;;11.02;;
71622;SDS011;59473;53.214;5.728;2022-09-09T04:13:11;26.90;;;10.52;;
71622;SDS011;59473;53.214;5.728;2022-09-09T04:15:37;22.70;;;10.27;;
71622;SDS011;59473;53.214;5.728;2022-09-09T04:18:02;24.20;;;11.05;;
71622;SDS011;59473;53.214;5.728;2022-09-09T04:20:28;25.63;;;9.90;;
71622;SDS011;59473;53.214;5.728;2022-09-09T04:22:54;23.67;;;10.33;;
71622;SDS011;59473;53.214;5.728;2022-09-09T04:25:19;27.02;;;10.98;;
71622;SDS011;59473;53.214;5.728;2022-09-09T04:27:44;29.23;;;10.13;;
71622;SDS011;59473;53.214;5.728;2022-09-09T04:30:10;24.85;;;9.73;;
71622;SDS011;59473;53.214;5.728;2022-09-09T04:32:35;21.73;;;9.75;;
71622;SDS011;59473;53.214;5.728;2022-09-09T04:35:01;28.58;;;9.32;;
71622;SDS011;59473;53.214;5.728;2022-09-09T04:37:27;22.87;;;9.30;;
71622;SDS011;59473;53.214;5.728;2022-09-09T04:39:52;23.03;;;9.63;;
71622;SDS011;59473;53.214;5.728;2022-09-09T04:42:17;26.43;;;10.50;;
71622;SDS011;59473;53.214;5.728;2022-09-09T04:44:44;23.63;;;9.43;;
71622;SDS011;59473;53.214;5.728;2022-09-09T04:47:09;23.23;;;9.47;;
71622;SDS011;59473;53.214;5.728;2022-09-09T04:49:34;24.13;;;10.30;;
71622;SDS011;59473;53.214;5.728;2022-09-09T04:52:00;23.53;;;9.53;;
71622;SDS011;59473;53.214;5.728;2022-09-09T04:54:26;24.42;;;9.23;;
71622;SDS011;59473;53.214;5.728;2022-09-09T04:56:51;23.55;;;8.63;;
71622;SDS011;59473;53.214;5.728;2022-09-09T04:59:16;24.65;;;9.05;;
71622;SDS011;59473;53.214;5.728;2022-09-09T05:01:41;23.77;;;8.50;;
71622;SDS011;59473;53.214;5.728;2022-09-09T05:04:07;21.27;;;7.53;;
71622;SDS011;59473;53.214;5.728;2022-09-09T05:06:33;20.85;;;7.75;;
71622;SDS011;59473;53.214;5.728;2022-09-09T05:09:01;25.48;;;9.30;;
71622;SDS011;59473;53.214;5.728;2022-09-09T05:11:27;24.57;;;8.83;;
71622;SDS011;59473;53.214;5.728;2022-09-09T05:13:53;24.73;;;8.75;;
71622;SDS011;59473;53.214;5.728;2022-09-09T05:16:18;24.00;;;8.38;;
71622;SDS011;59473;53.214;5.728;2022-09-09T05:18:44;24.20;;;8.80;;
71622;SDS011;59473;53.214;5.728;2022-09-09T05:21:11;22.23;;;8.27;;
71622;SDS011;59473;53.214;5.728;2022-09-09T05:23:36;30.05;;;8.75;;
71622;SDS011;59473;53.214;5.728;2022-09-09T05:26:02;23.65;;;8.35;;
71622;SDS011;59473;53.214;5.728;2022-09-09T05:28:28;20.50;;;7.57;;
71622;SDS011;59473;53.214;5.728;2022-09-09T05:31:01;22.98;;;8.38;;
71622;SDS011;59473;53.214;5.728;2022-09-09T05:33:28;21.55;;;8.07;;
71622;SDS011;59473;53.214;5.728;2022-09-09T05:35:55;24.80;;;7.63;;
71622;SDS011;59473;53.214;5.728;2022-09-09T05:38:21;22.75;;;8.38;;
71622;SDS011;59473;53.214;5.728;2022-09-09T05:40:49;26.80;;;8.93;;
71622;SDS011;59473;53.214;5.728;2022-09-09T05:43:15;23.27;;;8.30;;
71622;SDS011;59473;53.214;5.728;2022-09-09T05:45:40;27.37;;;8.70;;
71622;SDS011;59473;53.214;5.728;2022-09-09T05:48:05;26.13;;;9.23;;
71622;SDS011;59473;53.214;5.728;2022-09-09T05:50:30;21.87;;;9.70;;
71622;SDS011;59473;53.214;5.728;2022-09-09T05:52:56;24.27;;;9.48;;
71622;SDS011;59473;53.214;5.728;2022-09-09T05:55:21;26.73;;;9.17;;
71622;SDS011;59473;53.214;5.728;2022-09-09T05:57:50;26.87;;;9.73;;
71622;SDS011;59473;53.214;5.728;2022-09-09T06:00:16;26.58;;;9.52;;
71622;SDS011;59473;53.214;5.728;2022-09-09T06:02:42;25.47;;;9.60;;
71622;SDS011;59473;53.214;5.728;2022-09-09T06:05:07;25.70;;;10.33;;
71622;SDS011;59473;53.214;5.728;2022-09-09T06:07:33;27.05;;;9.77;;
71622;SDS011;59473;53.214;5.728;2022-09-09T06:10:01;29.03;;;10.20;;
71622;SDS011;59473;53.214;5.728;2022-09-09T06:12:26;31.15;;;11.15;;
71622;SDS011;59473;53.214;5.728;2022-09-09T06:14:51;32.42;;;11.02;;
71622;SDS011;59473;53.214;5.728;2022-09-09T06:17:16;31.40;;;10.45;;
71622;SDS011;59473;53.214;5.728;2022-09-09T06:19:42;31.52;;;10.98;;
71622;SDS011;59473;53.214;5.728;2022-09-09T06:22:07;29.57;;;11.07;;
71622;SDS011;59473;53.214;5.728;2022-09-09T06:24:32;27.80;;;11.10;;
71622;SDS011;59473;53.214;5.728;2022-09-09T06:26:57;30.53;;;11.93;;
71622;SDS011;59473;53.214;5.728;2022-09-09T06:29:23;29.33;;;11.17;;
71622;SDS011;59473;53.214;5.728;2022-09-09T06:31:48;31.53;;;12.00;;
71622;SDS011;59473;53.214;5.728;2022-09-09T06:34:14;29.17;;;10.53;;
71622;SDS011;59473;53.214;5.728;2022-09-09T06:36:39;26.73;;;10.53;;
71622;SDS011;59473;53.214;5.728;2022-09-09T06:39:05;26.90;;;10.38;;
71622;SDS011;59473;53.214;5.728;2022-09-09T06:41:31;26.70;;;11.40;;
71622;SDS011;59473;53.214;5.728;2022-09-09T06:43:57;24.15;;;10.57;;
71622;SDS011;59473;53.214;5.728;2022-09-09T06:46:23;26.50;;;9.80;;
71622;SDS011;59473;53.214;5.728;2022-09-09T06:48:52;23.25;;;10.02;;
71622;SDS011;59473;53.214;5.728;2022-09-09T06:51:20;22.20;;;8.77;;
71622;SDS011;59473;53.214;5.728;2022-09-09T06:53:53;19.63;;;9.38;;
71622;SDS011;59473;53.214;5.728;2022-09-09T06:56:22;21.07;;;8.73;;
71622;SDS011;59473;53.214;5.728;2022-09-09T06:58:48;21.52;;;8.18;;
71622;SDS011;59473;53.214;5.728;2022-09-09T07:01:21;22.98;;;9.13;;
71622;SDS011;59473;53.214;5.728;2022-09-09T07:03:47;21.83;;;9.23;;
71622;SDS011;59473;53.214;5.728;2022-09-09T07:06:14;16.65;;;7.85;;
71622;SDS011;59473;53.214;5.728;2022-09-09T07:08:40;20.03;;;8.73;;
71622;SDS011;59473;53.214;5.728;2022-09-09T07:11:06;20.10;;;8.27;;
71622;SDS011;59473;53.214;5.728;2022-09-09T07:13:31;18.40;;;8.60;;
71622;SDS011;59473;53.214;5.728;2022-09-09T07:16:04;17.55;;;8.27;;
71622;SDS011;59473;53.214;5.728;2022-09-09T07:18:29;20.33;;;9.13;;
71622;SDS011;59473;53.214;5.728;2022-09-09T07:20:55;21.33;;;8.95;;
71622;SDS011;59473;53.214;5.728;2022-09-09T07:23:22;20.30;;;8.70;;
71622;SDS011;59473;53.214;5.728;2022-09-09T07:25:48;23.17;;;8.80;;
71622;SDS011;59473;53.214;5.728;2022-09-09T07:28:13;17.73;;;8.63;;
71622;SDS011;59473;53.214;5.728;2022-09-09T07:30:39;19.02;;;8.25;;
71622;SDS011;59473;53.214;5.728;2022-09-09T07:33:05;19.58;;;7.85;;
71622;SDS011;59473;53.214;5.728;2022-09-09T07:35:30;16.80;;;7.73;;
71622;SDS011;59473;53.214;5.728;2022-09-09T07:37:55;15.40;;;7.37;;
71622;SDS011;59473;53.214;5.728;2022-09-09T07:40:21;17.10;;;7.70;;
71622;SDS011;59473;53.214;5.728;2022-09-09T07:42:46;14.43;;;7.28;;
71622;SDS011;59473;53.214;5.728;2022-09-09T07:45:12;19.17;;;7.60;;
71622;SDS011;59473;53.214;5.728;2022-09-09T07:47:37;14.57;;;7.90;;
71622;SDS011;59473;53.214;5.728;2022-09-09T07:50:02;19.23;;;7.90;;
71622;SDS011;59473;53.214;5.728;2022-09-09T07:52:28;15.17;;;7.20;;
71622;SDS011;59473;53.214;5.728;2022-09-09T07:54:53;13.30;;;6.90;;
71622;SDS011;59473;53.214;5.728;2022-09-09T07:57:18;14.53;;;6.90;;
71622;SDS011;59473;53.214;5.728;2022-09-09T07:59:43;12.33;;;6.70;;
71622;SDS011;59473;53.214;5.728;2022-09-09T08:02:09;13.25;;;6.32;;
71622;SDS011;59473;53.214;5.728;2022-09-09T08:04:35;10.50;;;5.22;;
71622;SDS011;59473;53.214;5.728;2022-09-09T08:07:00;14.20;;;6.47;;
71622;SDS011;59473;53.214;5.728;2022-09-09T08:09:26;12.80;;;5.90;;
71622;SDS011;59473;53.214;5.728;2022-09-09T08:11:54;13.90;;;6.32;;
71622;SDS011;59473;53.214;5.728;2022-09-09T08:14:20;11.27;;;5.45;;
71622;SDS011;59473;53.214;5.728;2022-09-09T08:16:47;18.52;;;6.07;;
71622;SDS011;59473;53.214;5.728;2022-09-09T08:19:12;11.50;;;5.33;;
71622;SDS011;59473;53.214;5.728;2022-09-09T08:21:39;10.13;;;5.55;;
71622;SDS011;59473;53.214;5.728;2022-09-09T08:24:05;12.95;;;5.47;;
71622;SDS011;59473;53.214;5.728;2022-09-09T08:26:35;10.32;;;4.82;;
71622;SDS011;59473;53.214;5.728;2022-09-09T08:29:01;9.30;;;4.53;;
71622;SDS011;59473;53.214;5.728;2022-09-09T08:31:31;10.00;;;5.40;;
71622;SDS011;59473;53.214;5.728;2022-09-09T08:33:56;12.95;;;4.63;;
71622;SDS011;59473;53.214;5.728;2022-09-09T08:36:23;15.68;;;5.05;;
71622;SDS011;59473;53.214;5.728;2022-09-09T08:38:49;9.38;;;4.53;;
71622;SDS011;59473;53.214;5.728;2022-09-09T08:43:50;12.93;;;5.07;;
71622;SDS011;59473;53.214;5.728;2022-09-09T08:48:55;10.48;;;4.80;;
71622;SDS011;59473;53.214;5.728;2022-09-09T08:51:23;10.70;;;3.90;;
71622;SDS011;59473;53.214;5.728;2022-09-09T08:53:50;14.80;;;4.65;;
71622;SDS011;59473;53.214;5.728;2022-09-09T08:56:16;10.95;;;4.15;;
71622;SDS011;59473;53.214;5.728;2022-09-09T08:58:46;14.38;;;4.80;;
71622;SDS011;59473;53.214;5.728;2022-09-09T09:08:40;10.13;;;3.63;;
71622;SDS011;59473;53.214;5.728;2022-09-09T09:11:07;12.77;;;4.30;;
71622;SDS011;59473;53.214;5.728;2022-09-09T09:18:41;10.57;;;4.63;;
71622;SDS011;59473;53.214;5.728;2022-09-09T09:21:21;10.97;;;4.10;;
71622;SDS011;59473;53.214;5.728;2022-09-09T09:23:53;11.35;;;4.50;;
71622;SDS011;59473;53.214;5.728;2022-09-09T09:26:20;10.93;;;4.40;;
71622;SDS011;59473;53.214;5.728;2022-09-09T09:28:47;8.30;;;3.78;;
71622;SDS011;59473;53.214;5.728;2022-09-09T09:31:13;13.80;;;3.90;;
71622;SDS011;59473;53.214;5.728;2022-09-09T09:33:47;9.48;;;3.50;;
71622;SDS011;59473;53.214;5.728;2022-09-09T09:36:13;7.33;;;2.90;;
71622;SDS011;59473;53.214;5.728;2022-09-09T09:38:50;9.98;;;3.22;;
71622;SDS011;59473;53.214;5.728;2022-09-09T09:41:16;8.85;;;3.10;;
71622;SDS011;59473;53.214;5.728;2022-09-09T09:43:52;8.32;;;2.75;;
71622;SDS011;59473;53.214;5.728;2022-09-09T09:46:21;11.15;;;3.15;;
71622;SDS011;59473;53.214;5.728;2022-09-09T09:49:04;11.07;;;3.03;;
71622;SDS011;59473;53.214;5.728;2022-09-09T09:51:30;9.20;;;2.42;;
71622;SDS011;59473;53.214;5.728;2022-09-09T09:56:34;8.90;;;2.60;;
71622;SDS011;59473;53.214;5.728;2022-09-09T09:59:00;8.43;;;2.70;;
71622;SDS011;59473;53.214;5.728;2022-09-09T10:01:29;6.70;;;2.43;;
71622;SDS011;59473;53.214;5.728;2022-09-09T10:08:56;7.15;;;1.92;;
71622;SDS011;59473;53.214;5.728;2022-09-09T10:11:35;10.43;;;2.30;;
71622;SDS011;59473;53.214;5.728;2022-09-09T10:14:10;6.20;;;1.95;;
71622;SDS011;59473;53.214;5.728;2022-09-09T10:16:40;9.50;;;2.50;;
71622;SDS011;59473;53.214;5.728;2022-09-09T10:19:13;6.27;;;2.17;;
71622;SDS011;59473;53.214;5.728;2022-09-09T10:24:19;6.88;;;2.10;;
71622;SDS011;59473;53.214;5.728;2022-09-09T10:26:52;12.20;;;2.53;;
71622;SDS011;59473;53.214;5.728;2022-09-09T10:37:00;8.68;;;2.00;;
71622;SDS011;59473;53.214;5.728;2022-09-09T10:39:36;8.55;;;2.38;;
71622;SDS011;59473;53.214;5.728;2022-09-09T10:42:06;9.73;;;1.75;;
71622;SDS011;59473;53.214;5.728;2022-09-09T10:57:27;7.85;;;1.88;;
71622;SDS011;59473;53.214;5.728;2022-09-09T10:59:55;8.95;;;2.03;;
71622;SDS011;59473;53.214;5.728;2022-09-09T11:02:29;8.80;;;2.00;;
71622;SDS011;59473;53.214;5.728;2022-09-09T11:04:55;6.40;;;1.60;;
71622;SDS011;59473;53.214;5.728;2022-09-09T11:07:45;6.13;;;1.42;;
71622;SDS011;59473;53.214;5.728;2022-09-09T11:10:18;6.38;;;1.50;;
71622;SDS011;59473;53.214;5.728;2022-09-09T11:12:46;10.23;;;1.67;;
71622;SDS011;59473;53.214;5.728;2022-09-09T11:15:28;6.70;;;2.00;;
71622;SDS011;59473;53.214;5.728;2022-09-09T11:17:56;8.30;;;1.80;;
71622;SDS011;59473;53.214;5.728;2022-09-09T11:20:23;9.60;;;2.40;;
71622;SDS011;59473;53.214;5.728;2022-09-09T11:22:51;11.93;;;2.17;;
71622;SDS011;59473;53.214;5.728;2022-09-09T11:25:20;6.78;;;1.50;;
71622;SDS011;59473;53.214;5.728;2022-09-09T11:30:37;7.13;;;1.40;;
71622;SDS011;59473;53.214;5.728;2022-09-09T11:38:26;9.15;;;1.60;;
71622;SDS011;59473;53.214;5.728;2022-09-09T11:40:56;11.20;;;1.95;;
71622;SDS011;59473;53.214;5.728;2022-09-09T11:43:25;8.00;;;1.45;;
71622;SDS011;59473;53.214;5.728;2022-09-09T11:45:58;10.13;;;1.90;;
71622;SDS011;59473;53.214;5.728;2022-09-09T11:51:36;6.07;;;1.60;;
71622;SDS011;59473;53.214;5.728;2022-09-09T11:53:47;6.20;;;1.58;;
71622;SDS011;59473;53.214;5.728;2022-09-09T11:56:22;8.38;;;1.23;;
71622;SDS011;59473;53.214;5.728;2022-09-09T11:58:58;7.97;;;1.27;;
71622;SDS011;59473;53.214;5.728;2022-09-09T12:01:41;6.20;;;1.23;;
71622;SDS011;59473;53.214;5.728;2022-09-09T12:06:57;9.13;;;1.50;;
71622;SDS011;59473;53.214;5.728;2022-09-09T12:17:29;9.93;;;1.73;;
71622;SDS011;59473;53.214;5.728;2022-09-09T12:22:42;7.43;;;1.60;;
71622;SDS011;59473;53.214;5.728;2022-09-09T12:25:20;10.98;;;1.70;;
71622;SDS011;59473;53.214;5.728;2022-09-09T12:30:34;7.50;;;2.10;;
71622;SDS011;59473;53.214;5.728;2022-09-09T12:33:01;9.40;;;1.70;;
71622;SDS011;59473;53.214;5.728;2022-09-09T12:35:26;10.07;;;1.92;;
71622;SDS011;59473;53.214;5.728;2022-09-09T12:40:20;12.48;;;2.08;;
71622;SDS011;59473;53.214;5.728;2022-09-09T12:42:46;7.40;;;1.77;;
71622;SDS011;59473;53.214;5.728;2022-09-09T12:45:18;6.90;;;1.60;;
71622;SDS011;59473;53.214;5.728;2022-09-09T12:52:42;7.70;;;1.58;;
71622;SDS011;59473;53.214;5.728;2022-09-09T12:55:07;9.02;;;2.25;;
71622;SDS011;59473;53.214;5.728;2022-09-09T12:57:41;8.82;;;2.03;;
71622;SDS011;59473;53.214;5.728;2022-09-09T13:00:12;7.50;;;2.07;;
71622;SDS011;59473;53.214;5.728;2022-09-09T13:02:49;7.22;;;1.40;;
71622;SDS011;59473;53.214;5.728;2022-09-09T13:05:16;9.75;;;1.63;;
71622;SDS011;59473;53.214;5.728;2022-09-09T13:07:42;7.63;;;1.55;;
71622;SDS011;59473;53.214;5.728;2022-09-09T13:10:10;9.40;;;1.77;;
71622;SDS011;59473;53.214;5.728;2022-09-09T13:12:36;10.13;;;1.63;;
71622;SDS011;59473;53.214;5.728;2022-09-09T13:15:01;5.90;;;1.37;;
71622;SDS011;59473;53.214;5.728;2022-09-09T13:17:27;7.15;;;1.40;;
71622;SDS011;59473;53.214;5.728;2022-09-09T13:19:56;7.90;;;1.40;;
71622;SDS011;59473;53.214;5.728;2022-09-09T13:22:26;7.07;;;1.75;;
71622;SDS011;59473;53.214;5.728;2022-09-09T13:25:04;8.50;;;1.80;;
71622;SDS011;59473;53.214;5.728;2022-09-09T13:27:30;8.20;;;1.52;;
71622;SDS011;59473;53.214;5.728;2022-09-09T13:29:56;9.30;;;1.40;;
71622;SDS011;59473;53.214;5.728;2022-09-09T13:32:22;9.35;;;1.58;;
71622;SDS011;59473;53.214;5.728;2022-09-09T13:35:23;6.33;;;1.50;;
71622;SDS011;59473;53.214;5.728;2022-09-09T13:37:37;6.90;;;1.75;;
71622;SDS011;59473;53.214;5.728;2022-09-09T13:40:03;5.10;;;1.00;;
71622;SDS011;59473;53.214;5.728;2022-09-09T13:42:31;6.75;;;1.40;;
71622;SDS011;59473;53.214;5.728;2022-09-09T13:44:57;7.55;;;1.20;;
71622;SDS011;59473;53.214;5.728;2022-09-09T13:47:30;7.30;;;1.42;;
71622;SDS011;59473;53.214;5.728;2022-09-09T13:49:56;8.07;;;1.67;;
71622;SDS011;59473;53.214;5.728;2022-09-09T13:52:21;7.67;;;1.90;;
71622;SDS011;59473;53.214;5.728;2022-09-09T13:54:50;5.50;;;1.20;;
71622;SDS011;59473;53.214;5.728;2022-09-09T13:57:17;6.57;;;1.83;;
71622;SDS011;59473;53.214;5.728;2022-09-09T13:59:43;4.30;;;0.98;;
71622;SDS011;59473;53.214;5.728;2022-09-09T14:02:08;4.57;;;1.30;;
71622;SDS011;59473;53.214;5.728;2022-09-09T14:04:34;7.43;;;2.17;;
71622;SDS011;59473;53.214;5.728;2022-09-09T14:07:00;9.85;;;2.17;;
71622;SDS011;59473;53.214;5.728;2022-09-09T14:09:25;7.17;;;2.13;;
71622;SDS011;59473;53.214;5.728;2022-09-09T14:11:50;8.67;;;2.23;;
71622;SDS011;59473;53.214;5.728;2022-09-09T14:14:15;6.53;;;1.60;;
71622;SDS011;59473;53.214;5.728;2022-09-09T14:16:41;8.97;;;2.00;;
71622;SDS011;59473;53.214;5.728;2022-09-09T14:19:07;5.83;;;1.80;;
71622;SDS011;59473;53.214;5.728;2022-09-09T14:21:32;4.80;;;1.67;;
71622;SDS011;59473;53.214;5.728;2022-09-09T14:23:58;5.90;;;1.77;;
71622;SDS011;59473;53.214;5.728;2022-09-09T14:26:23;5.77;;;1.70;;
71622;SDS011;59473;53.214;5.728;2022-09-09T14:28:48;5.67;;;1.47;;
71622;SDS011;59473;53.214;5.728;2022-09-09T14:31:15;5.75;;;1.33;;
71622;SDS011;59473;53.214;5.728;2022-09-09T14:33:41;4.95;;;1.30;;
71622;SDS011;59473;53.214;5.728;2022-09-09T14:36:06;5.57;;;1.13;;
71622;SDS011;59473;53.214;5.728;2022-09-09T14:38:32;5.10;;;1.37;;
71622;SDS011;59473;53.214;5.728;2022-09-09T14:40:58;5.65;;;1.10;;
71622;SDS011;59473;53.214;5.728;2022-09-09T14:43:24;7.60;;;1.10;;
71622;SDS011;59473;53.214;5.728;2022-09-09T14:45:49;7.50;;;1.57;;
71622;SDS011;59473;53.214;5.728;2022-09-09T14:48:16;5.18;;;1.42;;
71622;SDS011;59473;53.214;5.728;2022-09-09T14:50:41;9.13;;;2.17;;
71622;SDS011;59473;53.214;5.728;2022-09-09T14:53:07;7.07;;;1.40;;
71622;SDS011;59473;53.214;5.728;2022-09-09T14:55:33;11.90;;;1.45;;
71622;SDS011;59473;53.214;5.728;2022-09-09T14:57:58;8.60;;;2.10;;
71622;SDS011;59473;53.214;5.728;2022-09-09T15:00:24;10.10;;;1.70;;
71622;SDS011;59473;53.214;5.728;2022-09-09T15:02:51;5.97;;;1.90;;
71622;SDS011;59473;53.214;5.728;2022-09-09T15:05:17;4.80;;;1.60;;
71622;SDS011;59473;53.214;5.728;2022-09-09T15:07:42;4.77;;;1.97;;
71622;SDS011;59473;53.214;5.728;2022-09-09T15:10:07;5.97;;;1.80;;
71622;SDS011;59473;53.214;5.728;2022-09-09T15:12:32;6.53;;;1.80;;
71622;SDS011;59473;53.214;5.728;2022-09-09T15:15:00;5.67;;;1.50;;
71622;SDS011;59473;53.214;5.728;2022-09-09T15:17:25;5.20;;;1.33;;
71622;SDS011;59473;53.214;5.728;2022-09-09T15:19:52;5.68;;;1.80;;
71622;SDS011;59473;53.214;5.728;2022-09-09T15:22:17;6.20;;;1.60;;
71622;SDS011;59473;53.214;5.728;2022-09-09T15:24:43;5.45;;;2.10;;
71622;SDS011;59473;53.214;5.728;2022-09-09T15:27:08;7.70;;;1.93;;
71622;SDS011;59473;53.214;5.728;2022-09-09T15:29:33;7.20;;;2.23;;
71622;SDS011;59473;53.214;5.728;2022-09-09T15:31:59;6.57;;;2.10;;
71622;SDS011;59473;53.214;5.728;2022-09-09T15:34:24;5.30;;;1.93;;
71622;SDS011;59473;53.214;5.728;2022-09-09T15:36:50;8.65;;;2.25;;
71622;SDS011;59473;53.214;5.728;2022-09-09T15:39:16;9.90;;;2.70;;
71622;SDS011;59473;53.214;5.728;2022-09-09T15:41:45;11.30;;;2.97;;
71622;SDS011;59473;53.214;5.728;2022-09-09T15:44:10;8.10;;;2.70;;
71622;SDS011;59473;53.214;5.728;2022-09-09T15:49:12;7.65;;;2.70;;
71622;SDS011;59473;53.214;5.728;2022-09-09T15:51:38;9.77;;;2.50;;
71622;SDS011;59473;53.214;5.728;2022-09-09T15:54:04;8.10;;;2.60;;
71622;SDS011;59473;53.214;5.728;2022-09-09T15:56:29;8.60;;;2.67;;
71622;SDS011;59473;53.214;5.728;2022-09-09T15:58:55;9.43;;;2.90;;
71622;SDS011;59473;53.214;5.728;2022-09-09T16:01:22;9.23;;;2.63;;
71622;SDS011;59473;53.214;5.728;2022-09-09T16:03:47;8.10;;;3.03;;
71622;SDS011;59473;53.214;5.728;2022-09-09T16:06:14;8.02;;;2.92;;
71622;SDS011;59473;53.214;5.728;2022-09-09T16:08:41;11.13;;;3.17;;
71622;SDS011;59473;53.214;5.728;2022-09-09T16:11:11;6.78;;;2.50;;
71622;SDS011;59473;53.214;5.728;2022-09-09T16:13:37;10.23;;;3.07;;
71622;SDS011;59473;53.214;5.728;2022-09-09T16:16:04;9.07;;;3.28;;
71622;SDS011;59473;53.214;5.728;2022-09-09T16:18:35;7.60;;;3.13;;
71622;SDS011;59473;53.214;5.728;2022-09-09T16:21:01;8.48;;;3.13;;
71622;SDS011;59473;53.214;5.728;2022-09-09T16:23:26;11.30;;;6.67;;
71622;SDS011;59473;53.214;5.728;2022-09-09T16:25:55;8.30;;;3.40;;
71622;SDS011;59473;53.214;5.728;2022-09-09T16:28:20;8.32;;;3.50;;
71622;SDS011;59473;53.214;5.728;2022-09-09T16:30:46;9.50;;;3.30;;
71622;SDS011;59473;53.214;5.728;2022-09-09T16:33:11;6.57;;;2.33;;
71622;SDS011;59473;53.214;5.728;2022-09-09T16:35:39;4.82;;;1.40;;
71622;SDS011;59473;53.214;5.728;2022-09-09T16:38:05;2.50;;;1.10;;
71622;SDS011;59473;53.214;5.728;2022-09-09T16:40:30;2.73;;;1.00;;
71622;SDS011;59473;53.214;5.728;2022-09-09T16:42:59;4.25;;;0.80;;
71622;SDS011;59473;53.214;5.728;2022-09-09T16:45:24;4.67;;;0.80;;
71622;SDS011;59473;53.214;5.728;2022-09-09T16:47:49;4.73;;;0.70;;
71622;SDS011;59473;53.214;5.728;2022-09-09T16:50:14;2.27;;;0.50;;
71622;SDS011;59473;53.214;5.728;2022-09-09T16:52:40;2.13;;;0.60;;
71622;SDS011;59473;53.214;5.728;2022-09-09T16:55:05;4.83;;;0.80;;
71622;SDS011;59473;53.214;5.728;2022-09-09T16:57:30;4.03;;;0.87;;